sensor_id;sensor_type;location;lat;lon;timestamp;pressure;altitude;pressure_sealevel;temperature;humidity
61292;BME280;47165;42.664;23.368;2022-12-07T00:00:40;95018.63;;;7.64;69.05
61292;BME280;47165;42.664;23.368;2022-12-07T00:03:06;95021.66;;;7.55;69.65
61292;BME280;47165;42.664;23.368;2022-12-07T00:05:31;95017.28;;;7.55;69.92
61292;BME280;47165;42.664;23.368;2022-12-07T00:07:57;95031.19;;;7.54;70.14
61292;BME280;47165;42.664;23.368;2022-12-07T00:10:22;95021.00;;;7.50;70.16
61292;BME280;47165;42.664;23.368;2022-12-07T00:12:47;95024.38;;;7.52;69.85
61292;BME280;47165;42.664;23.368;2022-12-07T00:15:13;95019.19;;;7.52;70.10
61292;BME280;47165;42.664;23.368;2022-12-07T00:17:38;95011.16;;;7.56;69.86
61292;BME280;47165;42.664;23.368;2022-12-07T00:20:04;95014.53;;;7.58;69.92
61292;BME280;47165;42.664;23.368;2022-12-07T00:22:30;95006.84;;;7.57;69.72
61292;BME280;47165;42.664;23.368;2022-12-07T00:24:55;95014.69;;;7.55;69.92
61292;BME280;47165;42.664;23.368;2022-12-07T00:27:21;95014.69;;;7.55;69.85
61292;BME280;47165;42.664;23.368;2022-12-07T00:29:46;95010.50;;;7.53;70.09
61292;BME280;47165;42.664;23.368;2022-12-07T00:32:12;95014.81;;;7.52;70.01
61292;BME280;47165;42.664;23.368;2022-12-07T00:34:37;95013.97;;;7.52;69.79
61292;BME280;47165;42.664;23.368;2022-12-07T00:37:02;95008.16;;;7.47;69.93
61292;BME280;47165;42.664;23.368;2022-12-07T00:39:28;95020.09;;;7.51;70.04
61292;BME280;47165;42.664;23.368;2022-12-07T00:41:53;95025.09;;;7.55;69.74
61292;BME280;47165;42.664;23.368;2022-12-07T00:44:20;95021.50;;;7.58;69.82
61292;BME280;47165;42.664;23.368;2022-12-07T00:46:47;95011.94;;;7.58;69.84
61292;BME280;47165;42.664;23.368;2022-12-07T00:49:12;94992.84;;;7.59;69.78
61292;BME280;47165;42.664;23.368;2022-12-07T00:54:59;95001.09;;;7.69;69.63
61292;BME280;47165;42.664;23.368;2022-12-07T00:57:24;95003.75;;;7.68;69.63
61292;BME280;47165;42.664;23.368;2022-12-07T00:59:50;94995.88;;;7.69;69.43
61292;BME280;47165;42.664;23.368;2022-12-07T01:02:15;94997.44;;;7.73;69.34
61292;BME280;47165;42.664;23.368;2022-12-07T01:04:41;94995.66;;;7.74;69.28
61292;BME280;47165;42.664;23.368;2022-12-07T01:07:06;94996.50;;;7.74;69.02
61292;BME280;47165;42.664;23.368;2022-12-07T01:09:31;94991.94;;;7.79;69.26
61292;BME280;47165;42.664;23.368;2022-12-07T01:11:57;95000.59;;;7.80;68.98
61292;BME280;47165;42.664;23.368;2022-12-07T01:14:23;94992.78;;;7.80;69.00
61292;BME280;47165;42.664;23.368;2022-12-07T01:16:48;94991.84;;;7.81;68.72
61292;BME280;47165;42.664;23.368;2022-12-07T01:19:13;94991.78;;;7.82;68.85
61292;BME280;47165;42.664;23.368;2022-12-07T01:21:39;94991.72;;;7.84;69.02
61292;BME280;47165;42.664;23.368;2022-12-07T01:24:08;94982.09;;;7.86;68.87
61292;BME280;47165;42.664;23.368;2022-12-07T01:26:34;94984.00;;;7.82;68.89
61292;BME280;47165;42.664;23.368;2022-12-07T01:29:00;94984.00;;;7.82;68.75
61292;BME280;47165;42.664;23.368;2022-12-07T01:31:26;94982.09;;;7.86;68.80
61292;BME280;47165;42.664;23.368;2022-12-07T01:33:55;94979.44;;;7.88;68.50
61292;BME280;47165;42.664;23.368;2022-12-07T01:36:29;94985.47;;;7.88;68.33
61292;BME280;47165;42.664;23.368;2022-12-07T01:38:56;94976.69;;;7.91;68.50
61292;BME280;47165;42.664;23.368;2022-12-07T01:41:24;94975.00;;;7.90;68.28
61292;BME280;47165;42.664;23.368;2022-12-07T01:46:33;94984.00;;;7.82;68.18
61292;BME280;47165;42.664;23.368;2022-12-07T01:48:59;94978.78;;;7.82;68.46
61292;BME280;47165;42.664;23.368;2022-12-07T01:51:25;94986.59;;;7.82;68.39
61292;BME280;47165;42.664;23.368;2022-12-07T01:53:51;94977.19;;;7.80;68.38
61292;BME280;47165;42.664;23.368;2022-12-07T01:56:19;94966.94;;;7.77;68.41
61292;BME280;47165;42.664;23.368;2022-12-07T01:58:47;94978.97;;;7.79;68.51
61292;BME280;47165;42.664;23.368;2022-12-07T02:01:13;94972.06;;;7.78;68.76
61292;BME280;47165;42.664;23.368;2022-12-07T02:03:43;94962.38;;;7.82;68.81
61292;BME280;47165;42.664;23.368;2022-12-07T02:06:12;94964.13;;;7.81;68.90
61292;BME280;47165;42.664;23.368;2022-12-07T02:08:41;94960.13;;;7.74;69.10
61292;BME280;47165;42.664;23.368;2022-12-07T02:11:07;94960.00;;;7.77;69.20
61292;BME280;47165;42.664;23.368;2022-12-07T02:13:35;94961.88;;;7.74;69.17
61292;BME280;47165;42.664;23.368;2022-12-07T02:21:38;94968.19;;;7.68;69.18
61292;BME280;47165;42.664;23.368;2022-12-07T02:29:43;94958.72;;;7.67;69.28
61292;BME280;47165;42.664;23.368;2022-12-07T02:32:16;94955.22;;;7.68;69.25
61292;BME280;47165;42.664;23.368;2022-12-07T02:35:05;94949.94;;;7.70;69.27
61292;BME280;47165;42.664;23.368;2022-12-07T02:37:36;94946.50;;;7.69;69.58
61292;BME280;47165;42.664;23.368;2022-12-07T02:40:27;94942.97;;;7.70;69.43
61292;BME280;47165;42.664;23.368;2022-12-07T02:43:02;94944.03;;;7.66;69.35
61292;BME280;47165;42.664;23.368;2022-12-07T02:45:30;94942.72;;;7.57;69.57
61292;BME280;47165;42.664;23.368;2022-12-07T02:47:58;94956.75;;;7.53;69.87
61292;BME280;47165;42.664;23.368;2022-12-07T02:50:26;94953.41;;;7.51;69.71
61292;BME280;47165;42.664;23.368;2022-12-07T03:11:03;94935.69;;;7.21;70.85
61292;BME280;47165;42.664;23.368;2022-12-07T03:18:44;94926.06;;;7.23;70.65
61292;BME280;47165;42.664;23.368;2022-12-07T03:21:16;94923.19;;;7.30;70.58
61292;BME280;47165;42.664;23.368;2022-12-07T03:23:46;94931.69;;;7.33;70.27
61292;BME280;47165;42.664;23.368;2022-12-07T03:26:16;94927.28;;;7.35;70.04
61292;BME280;47165;42.664;23.368;2022-12-07T03:28:49;94922.13;;;7.34;69.54
61292;BME280;47165;42.664;23.368;2022-12-07T03:31:25;94930.97;;;7.30;70.09
61292;BME280;47165;42.664;23.368;2022-12-07T03:34:05;94934.56;;;7.27;69.68
61292;BME280;47165;42.664;23.368;2022-12-07T03:41:46;94946.34;;;7.15;69.87
61292;BME280;47165;42.664;23.368;2022-12-07T03:44:12;94936.81;;;7.16;69.75
61292;BME280;47165;42.664;23.368;2022-12-07T03:47:15;94932.41;;;7.18;70.54
61292;BME280;47165;42.664;23.368;2022-12-07T03:49:57;94926.28;;;7.19;70.08
61292;BME280;47165;42.664;23.368;2022-12-07T03:52:28;94930.69;;;7.17;70.02
61292;BME280;47165;42.664;23.368;2022-12-07T03:57:26;94923.94;;;7.13;70.51
61292;BME280;47165;42.664;23.368;2022-12-07T03:59:54;94921.28;;;7.14;70.18
61292;BME280;47165;42.664;23.368;2022-12-07T04:02:21;94927.47;;;7.12;69.69
61292;BME280;47165;42.664;23.368;2022-12-07T04:04:49;94925.84;;;7.09;69.90
61292;BME280;47165;42.664;23.368;2022-12-07T04:07:14;94924.22;;;7.07;70.30
61292;BME280;47165;42.664;23.368;2022-12-07T04:09:40;94926.69;;;7.10;70.73
61292;BME280;47165;42.664;23.368;2022-12-07T04:12:05;94918.91;;;7.10;70.54
61292;BME280;47165;42.664;23.368;2022-12-07T04:14:31;94918.75;;;7.13;70.71
61292;BME280;47165;42.664;23.368;2022-12-07T04:16:58;94913.44;;;7.16;70.57
61292;BME280;47165;42.664;23.368;2022-12-07T04:19:26;94910.97;;;7.13;70.26
61292;BME280;47165;42.664;23.368;2022-12-07T04:21:52;94912.84;;;7.09;70.62
61292;BME280;47165;42.664;23.368;2022-12-07T04:24:18;94921.63;;;7.07;70.69
61292;BME280;47165;42.664;23.368;2022-12-07T04:26:44;94922.56;;;7.05;70.51
61292;BME280;47165;42.664;23.368;2022-12-07T04:29:09;94928.59;;;7.06;70.27
61292;BME280;47165;42.664;23.368;2022-12-07T04:31:35;94931.31;;;7.03;70.08
61292;BME280;47165;42.664;23.368;2022-12-07T04:34:02;94924.38;;;7.03;70.49
61292;BME280;47165;42.664;23.368;2022-12-07T04:36:27;94923.59;;;7.01;70.22
61292;BME280;47165;42.664;23.368;2022-12-07T04:38:54;94923.59;;;7.01;70.44
61292;BME280;47165;42.664;23.368;2022-12-07T04:41:21;94929.56;;;7.03;70.51
61292;BME280;47165;42.664;23.368;2022-12-07T04:43:56;94931.25;;;7.04;70.52
61292;BME280;47165;42.664;23.368;2022-12-07T04:46:23;94936.59;;;7.01;70.92
61292;BME280;47165;42.664;23.368;2022-12-07T04:48:50;94934.75;;;7.03;71.20
61292;BME280;47165;42.664;23.368;2022-12-07T04:54:37;94936.00;;;6.95;70.14
61292;BME280;47165;42.664;23.368;2022-12-07T04:57:02;94931.16;;;6.87;70.48
61292;BME280;47165;42.664;23.368;2022-12-07T04:59:28;94931.28;;;6.84;70.44
61292;BME280;47165;42.664;23.368;2022-12-07T05:01:53;94933.03;;;6.83;70.52
61292;BME280;47165;42.664;23.368;2022-12-07T05:04:18;94933.88;;;6.84;70.40
61292;BME280;47165;42.664;23.368;2022-12-07T05:06:44;94929.09;;;6.75;69.88
61292;BME280;47165;42.664;23.368;2022-12-07T05:09:09;94935.13;;;6.75;69.76
61292;BME280;47165;42.664;23.368;2022-12-07T05:11:35;94939.47;;;6.75;69.90
61292;BME280;47165;42.664;23.368;2022-12-07T05:14:12;94935.94;;;6.76;69.90
61292;BME280;47165;42.664;23.368;2022-12-07T05:16:40;94936.22;;;6.70;69.25
61292;BME280;47165;42.664;23.368;2022-12-07T05:19:06;94934.91;;;6.59;69.25
61292;BME280;47165;42.664;23.368;2022-12-07T05:21:32;94938.69;;;6.52;69.93
61292;BME280;47165;42.664;23.368;2022-12-07T05:23:57;94937.84;;;6.52;70.60
61292;BME280;47165;42.664;23.368;2022-12-07T05:26:23;94929.88;;;6.56;71.05
61292;BME280;47165;42.664;23.368;2022-12-07T05:28:54;94928.84;;;6.60;71.60
61292;BME280;47165;42.664;23.368;2022-12-07T05:31:20;94931.50;;;6.59;70.89
61292;BME280;47165;42.664;23.368;2022-12-07T05:33:46;94931.56;;;6.57;69.78
61292;BME280;47165;42.664;23.368;2022-12-07T05:36:11;94943.75;;;6.55;69.23
61292;BME280;47165;42.664;23.368;2022-12-07T05:38:37;94937.66;;;6.56;70.67
61292;BME280;47165;42.664;23.368;2022-12-07T05:41:04;94941.16;;;6.55;71.05
61292;BME280;47165;42.664;23.368;2022-12-07T05:43:30;94930.25;;;6.47;71.74
61292;BME280;47165;42.664;23.368;2022-12-07T05:45:56;94932.72;;;6.50;71.39
61292;BME280;47165;42.664;23.368;2022-12-07T05:48:22;94935.44;;;6.47;70.48
61292;BME280;47165;42.664;23.368;2022-12-07T05:50:48;94930.41;;;6.44;70.18
61292;BME280;47165;42.664;23.368;2022-12-07T05:53:14;94933.00;;;6.44;70.88
61292;BME280;47165;42.664;23.368;2022-12-07T05:55:39;94928.59;;;6.46;71.05
61292;BME280;47165;42.664;23.368;2022-12-07T05:58:05;94913.06;;;6.44;71.00
61292;BME280;47165;42.664;23.368;2022-12-07T06:00:48;94924.81;;;6.53;70.84
61292;BME280;47165;42.664;23.368;2022-12-07T06:03:14;94932.59;;;6.53;70.73
61292;BME280;47165;42.664;23.368;2022-12-07T06:05:40;94920.41;;;6.55;70.61
61292;BME280;47165;42.664;23.368;2022-12-07T06:08:05;94924.53;;;6.59;70.65
61292;BME280;47165;42.664;23.368;2022-12-07T06:10:31;94927.91;;;6.61;70.77
61292;BME280;47165;42.664;23.368;2022-12-07T06:12:56;94921.91;;;6.61;71.03
61292;BME280;47165;42.664;23.368;2022-12-07T06:15:21;94924.44;;;6.62;71.16
61292;BME280;47165;42.664;23.368;2022-12-07T06:17:48;94923.50;;;6.63;71.30
61292;BME280;47165;42.664;23.368;2022-12-07T06:20:13;94926.03;;;6.65;71.38
61292;BME280;47165;42.664;23.368;2022-12-07T06:22:39;94927.66;;;6.68;71.29
61292;BME280;47165;42.664;23.368;2022-12-07T06:25:04;94931.03;;;6.70;70.94
61292;BME280;47165;42.664;23.368;2022-12-07T06:27:30;94932.72;;;6.71;71.15
61292;BME280;47165;42.664;23.368;2022-12-07T06:29:56;94939.59;;;6.72;71.24
61292;BME280;47165;42.664;23.368;2022-12-07T06:32:21;94941.28;;;6.73;71.33
61292;BME280;47165;42.664;23.368;2022-12-07T06:34:47;94936.78;;;6.76;71.52
61292;BME280;47165;42.664;23.368;2022-12-07T06:37:12;94944.47;;;6.79;71.32
61292;BME280;47165;42.664;23.368;2022-12-07T06:39:38;94940.88;;;6.82;71.45
61292;BME280;47165;42.664;23.368;2022-12-07T06:42:04;94934.66;;;6.86;71.86
61292;BME280;47165;42.664;23.368;2022-12-07T06:44:29;94935.31;;;6.91;71.85
61292;BME280;47165;42.664;23.368;2022-12-07T06:46:54;94942.03;;;6.95;71.52
61292;BME280;47165;42.664;23.368;2022-12-07T06:52:41;94947.25;;;6.95;71.25
61292;BME280;47165;42.664;23.368;2022-12-07T06:55:07;94943.72;;;6.96;71.62
61292;BME280;47165;42.664;23.368;2022-12-07T06:57:32;94940.00;;;7.02;71.59
61292;BME280;47165;42.664;23.368;2022-12-07T06:59:58;94947.53;;;7.08;71.48
61292;BME280;47165;42.664;23.368;2022-12-07T07:02:23;94944.72;;;7.13;71.00
61292;BME280;47165;42.664;23.368;2022-12-07T07:04:48;94943.75;;;7.15;71.29
61292;BME280;47165;42.664;23.368;2022-12-07T07:07:14;94947.88;;;7.19;71.06
61292;BME280;47165;42.664;23.368;2022-12-07T07:09:39;94948.59;;;7.23;70.77
61292;BME280;47165;42.664;23.368;2022-12-07T07:12:05;94936.44;;;7.23;70.73
61292;BME280;47165;42.664;23.368;2022-12-07T07:14:30;94944.19;;;7.25;71.04
61292;BME280;47165;42.664;23.368;2022-12-07T07:16:56;94945.66;;;7.31;70.81
61292;BME280;47165;42.664;23.368;2022-12-07T07:19:21;94945.72;;;7.29;70.78
61292;BME280;47165;42.664;23.368;2022-12-07T07:21:46;94947.28;;;7.33;70.69
61292;BME280;47165;42.664;23.368;2022-12-07T07:24:12;94948.03;;;7.35;70.88
61292;BME280;47165;42.664;23.368;2022-12-07T07:26:37;94945.44;;;7.35;70.84
61292;BME280;47165;42.664;23.368;2022-12-07T07:29:03;94945.16;;;7.41;70.58
61292;BME280;47165;42.664;23.368;2022-12-07T07:31:29;94945.88;;;7.45;70.50
61292;BME280;47165;42.664;23.368;2022-12-07T07:33:54;94948.25;;;7.50;70.20
61292;BME280;47165;42.664;23.368;2022-12-07T07:36:20;94947.22;;;7.54;70.18
61292;BME280;47165;42.664;23.368;2022-12-07T07:38:45;94954.72;;;7.60;70.21
61292;BME280;47165;42.664;23.368;2022-12-07T07:41:10;94954.44;;;7.66;69.94
61292;BME280;47165;42.664;23.368;2022-12-07T07:43:36;94954.16;;;7.72;69.96
61292;BME280;47165;42.664;23.368;2022-12-07T07:46:01;94952.19;;;7.77;69.93
61292;BME280;47165;42.664;23.368;2022-12-07T07:48:27;94951.91;;;7.83;69.66
61292;BME280;47165;42.664;23.368;2022-12-07T07:50:52;94949.91;;;7.89;69.79
61292;BME280;47165;42.664;23.368;2022-12-07T07:53:18;94945.34;;;7.94;69.37
61292;BME280;47165;42.664;23.368;2022-12-07T07:55:53;94947.50;;;8.03;69.19
61292;BME280;47165;42.664;23.368;2022-12-07T07:58:19;94946.50;;;8.05;69.21
61292;BME280;47165;42.664;23.368;2022-12-07T08:00:45;94941.09;;;8.10;69.15
61292;BME280;47165;42.664;23.368;2022-12-07T08:03:10;94944.25;;;8.17;69.49
61292;BME280;47165;42.664;23.368;2022-12-07T08:05:37;94945.63;;;8.24;68.97
61292;BME280;47165;42.664;23.368;2022-12-07T08:08:03;94949.56;;;8.14;69.38
61292;BME280;47165;42.664;23.368;2022-12-07T08:10:28;94947.06;;;8.12;69.51
61292;BME280;47165;42.664;23.368;2022-12-07T08:12:54;94948.44;;;8.19;69.13
61292;BME280;47165;42.664;23.368;2022-12-07T08:15:41;94943.78;;;8.26;68.82
61292;BME280;47165;42.664;23.368;2022-12-07T08:18:07;94944.56;;;8.28;68.58
61292;BME280;47165;42.664;23.368;2022-12-07T08:20:35;94941.66;;;8.34;68.60
61292;BME280;47165;42.664;23.368;2022-12-07T08:23:01;94949.44;;;8.34;68.56
61292;BME280;47165;42.664;23.368;2022-12-07T08:25:26;94947.78;;;8.33;68.18
61292;BME280;47165;42.664;23.368;2022-12-07T08:27:52;94937.16;;;8.38;67.89
61292;BME280;47165;42.664;23.368;2022-12-07T08:30:18;94948.13;;;8.44;67.99
61292;BME280;47165;42.664;23.368;2022-12-07T08:32:44;94944.53;;;8.47;67.75
61292;BME280;47165;42.664;23.368;2022-12-07T08:35:10;94943.31;;;8.54;67.67
61292;BME280;47165;42.664;23.368;2022-12-07T08:37:36;94948.97;;;8.45;68.00
61292;BME280;47165;42.664;23.368;2022-12-07T08:40:02;94939.94;;;8.52;67.88
61292;BME280;47165;42.664;23.368;2022-12-07T08:42:28;94940.63;;;8.56;67.93
61292;BME280;47165;42.664;23.368;2022-12-07T08:44:56;94938.78;;;8.58;67.57
61292;BME280;47165;42.664;23.368;2022-12-07T08:47:23;94934.13;;;8.64;67.65
61292;BME280;47165;42.664;23.368;2022-12-07T08:49:50;94931.44;;;8.66;67.75
61292;BME280;47165;42.664;23.368;2022-12-07T08:52:17;94926.94;;;8.70;67.56
61292;BME280;47165;42.664;23.368;2022-12-07T08:54:43;94929.34;;;8.73;67.10
61292;BME280;47165;42.664;23.368;2022-12-07T08:57:10;94932.72;;;8.75;67.19
61292;BME280;47165;42.664;23.368;2022-12-07T08:59:37;94925.63;;;8.78;67.18
61292;BME280;47165;42.664;23.368;2022-12-07T09:02:04;94916.72;;;8.82;67.08
61292;BME280;47165;42.664;23.368;2022-12-07T09:04:29;94908.66;;;8.87;66.67
61292;BME280;47165;42.664;23.368;2022-12-07T09:06:55;94915.41;;;8.91;66.53
61292;BME280;47165;42.664;23.368;2022-12-07T09:09:21;94919.59;;;8.94;66.64
61292;BME280;47165;42.664;23.368;2022-12-07T09:11:46;94916.91;;;8.95;66.51
61292;BME280;47165;42.664;23.368;2022-12-07T09:14:12;94922.66;;;9.02;66.11
61292;BME280;47165;42.664;23.368;2022-12-07T09:16:38;94895.94;;;8.98;66.24
61292;BME280;47165;42.664;23.368;2022-12-07T09:19:03;94907.72;;;9.05;65.96
61292;BME280;47165;42.664;23.368;2022-12-07T09:21:29;94912.91;;;9.05;65.99
61292;BME280;47165;42.664;23.368;2022-12-07T09:23:55;94894.88;;;9.02;66.03
61292;BME280;47165;42.664;23.368;2022-12-07T09:26:20;94893.03;;;9.04;66.17
61292;BME280;47165;42.664;23.368;2022-12-07T09:28:46;94897.28;;;9.05;66.29
61292;BME280;47165;42.664;23.368;2022-12-07T09:31:11;94895.44;;;9.07;66.18
61292;BME280;47165;42.664;23.368;2022-12-07T09:33:37;94895.31;;;9.11;66.14
61292;BME280;47165;42.664;23.368;2022-12-07T09:36:03;94888.06;;;9.16;65.79
61292;BME280;47165;42.664;23.368;2022-12-07T09:38:29;94891.63;;;9.15;65.93
61292;BME280;47165;42.664;23.368;2022-12-07T09:40:55;94877.41;;;9.20;65.36
61292;BME280;47165;42.664;23.368;2022-12-07T09:43:25;94869.03;;;9.31;65.31
61292;BME280;47165;42.664;23.368;2022-12-07T09:45:53;94873.97;;;9.36;65.16
61292;BME280;47165;42.664;23.368;2022-12-07T09:48:21;94871.03;;;9.42;65.07
61292;BME280;47165;42.664;23.368;2022-12-07T09:50:49;94874.22;;;9.47;64.91
61292;BME280;47165;42.664;23.368;2022-12-07T09:53:37;94865.22;;;9.53;64.45
61292;BME280;47165;42.664;23.368;2022-12-07T09:56:03;94866.94;;;9.54;64.83
61292;BME280;47165;42.664;23.368;2022-12-07T09:58:31;94855.31;;;9.59;64.76
61292;BME280;47165;42.664;23.368;2022-12-07T10:03:32;94861.44;;;9.74;64.35
61292;BME280;47165;42.664;23.368;2022-12-07T10:05:58;94856.81;;;9.79;63.58
61292;BME280;47165;42.664;23.368;2022-12-07T10:08:24;94856.66;;;9.82;63.71
61292;BME280;47165;42.664;23.368;2022-12-07T10:10:53;94849.47;;;9.86;63.73
61292;BME280;47165;42.664;23.368;2022-12-07T10:13:45;94848.00;;;9.96;63.72
61292;BME280;47165;42.664;23.368;2022-12-07T10:18:49;94837.81;;;10.07;63.14
61292;BME280;47165;42.664;23.368;2022-12-07T10:21:21;94836.44;;;10.16;62.78
61292;BME280;47165;42.664;23.368;2022-12-07T10:24:13;94831.63;;;10.24;62.73
61292;BME280;47165;42.664;23.368;2022-12-07T10:31:39;94830.03;;;10.52;62.02
61292;BME280;47165;42.664;23.368;2022-12-07T10:34:20;94808.59;;;10.61;60.52
61292;BME280;47165;42.664;23.368;2022-12-07T10:36:47;94809.25;;;10.79;60.05
61292;BME280;47165;42.664;23.368;2022-12-07T10:39:14;94808.78;;;10.87;59.69
61292;BME280;47165;42.664;23.368;2022-12-07T10:44:33;94802.81;;;10.99;59.50
61292;BME280;47165;42.664;23.368;2022-12-07T10:47:25;94802.69;;;11.01;59.25
61292;BME280;47165;42.664;23.368;2022-12-07T10:50:10;94791.25;;;11.03;59.32
61292;BME280;47165;42.664;23.368;2022-12-07T11:01:33;94773.69;;;11.05;59.52
61292;BME280;47165;42.664;23.368;2022-12-07T11:09:42;94763.25;;;11.33;58.98
61292;BME280;47165;42.664;23.368;2022-12-07T11:15:01;94774.81;;;11.43;58.62
61292;BME280;47165;42.664;23.368;2022-12-07T11:17:36;94767.16;;;11.40;57.78
61292;BME280;47165;42.664;23.368;2022-12-07T11:23:02;94763.75;;;11.52;58.11
61292;BME280;47165;42.664;23.368;2022-12-07T11:28:21;94751.59;;;11.38;57.69
61292;BME280;47165;42.664;23.368;2022-12-07T11:31:00;94742.50;;;11.44;57.93
61292;BME280;47165;42.664;23.368;2022-12-07T11:36:51;94731.69;;;11.36;57.19
61292;BME280;47165;42.664;23.368;2022-12-07T11:38:53;94718.97;;;11.44;57.57
61292;BME280;47165;42.664;23.368;2022-12-07T11:41:24;94730.06;;;11.47;57.52
61292;BME280;47165;42.664;23.368;2022-12-07T11:46:50;94725.72;;;11.34;57.47
61292;BME280;47165;42.664;23.368;2022-12-07T11:49:51;94722.09;;;11.36;57.36
61292;BME280;47165;42.664;23.368;2022-12-07T11:52:26;94723.22;;;11.32;57.42
61292;BME280;47165;42.664;23.368;2022-12-07T11:54:57;94716.13;;;11.34;57.71
61292;BME280;47165;42.664;23.368;2022-12-07T11:57:37;94716.56;;;11.41;57.11
61292;BME280;47165;42.664;23.368;2022-12-07T12:00:08;94711.25;;;11.42;57.19
61292;BME280;47165;42.664;23.368;2022-12-07T12:02:45;94709.63;;;11.67;57.01
61292;BME280;47165;42.664;23.368;2022-12-07T12:05:23;94702.81;;;12.17;56.56
61292;BME280;47165;42.664;23.368;2022-12-07T12:08:11;94698.38;;;12.56;54.50
61292;BME280;47165;42.664;23.368;2022-12-07T12:19:22;94698.56;;;12.79;52.58
61292;BME280;47165;42.664;23.368;2022-12-07T12:21:56;94685.84;;;12.85;52.34
61292;BME280;47165;42.664;23.368;2022-12-07T12:24:25;94673.31;;;13.02;51.89
61292;BME280;47165;42.664;23.368;2022-12-07T12:26:58;94683.31;;;13.34;51.76
61292;BME280;47165;42.664;23.368;2022-12-07T12:32:21;94680.81;;;14.03;48.79
61292;BME280;47165;42.664;23.368;2022-12-07T12:42:57;94655.06;;;14.19;48.82
61292;BME280;47165;42.664;23.368;2022-12-07T12:45:24;94657.19;;;14.14;48.96
61292;BME280;47165;42.664;23.368;2022-12-07T12:53:50;94649.31;;;14.03;49.02
61292;BME280;47165;42.664;23.368;2022-12-07T12:56:34;94652.44;;;14.19;48.37
61292;BME280;47165;42.664;23.368;2022-12-07T13:02:20;94654.63;;;14.71;47.66
61292;BME280;47165;42.664;23.368;2022-12-07T13:05:01;94655.31;;;14.84;46.89
61292;BME280;47165;42.664;23.368;2022-12-07T13:20:58;94646.34;;;16.25;44.76
61292;BME280;47165;42.664;23.368;2022-12-07T13:26:38;94652.66;;;17.05;41.91
61292;BME280;47165;42.664;23.368;2022-12-07T13:34:04;94653.78;;;17.03;42.10
61292;BME280;47165;42.664;23.368;2022-12-07T13:36:33;94647.28;;;17.17;41.45
61292;BME280;47165;42.664;23.368;2022-12-07T13:39:22;94642.25;;;17.14;41.36
61292;BME280;47165;42.664;23.368;2022-12-07T13:41:53;94641.16;;;17.06;41.52
61292;BME280;47165;42.664;23.368;2022-12-07T13:44:20;94639.06;;;17.00;41.74
61292;BME280;47165;42.664;23.368;2022-12-07T13:49:29;94624.06;;;17.20;41.79
61292;BME280;47165;42.664;23.368;2022-12-07T13:52:12;94632.28;;;17.37;41.64
61292;BME280;47165;42.664;23.368;2022-12-07T13:57:25;94622.97;;;16.73;41.88
61292;BME280;47165;42.664;23.368;2022-12-07T13:59:51;94620.81;;;16.47;42.30
61292;BME280;47165;42.664;23.368;2022-12-07T14:02:30;94611.69;;;16.20;43.31
61292;BME280;47165;42.664;23.368;2022-12-07T14:05:23;94625.97;;;15.76;44.29
61292;BME280;47165;42.664;23.368;2022-12-07T14:07:54;94630.13;;;15.46;44.75
61292;BME280;47165;42.664;23.368;2022-12-07T14:10:53;94633.22;;;15.19;45.66
61292;BME280;47165;42.664;23.368;2022-12-07T14:13:37;94635.81;;;14.98;46.21
61292;BME280;47165;42.664;23.368;2022-12-07T14:16:26;94635.03;;;14.75;46.98
61292;BME280;47165;42.664;23.368;2022-12-07T14:18:53;94640.88;;;14.56;47.78
61292;BME280;47165;42.664;23.368;2022-12-07T14:21:22;94641.69;;;14.45;48.30
61292;BME280;47165;42.664;23.368;2022-12-07T14:24:22;94651.72;;;14.40;48.35
61292;BME280;47165;42.664;23.368;2022-12-07T14:26:49;94637.16;;;14.24;48.59
61292;BME280;47165;42.664;23.368;2022-12-07T14:31:50;94649.53;;;14.00;49.20
61292;BME280;47165;42.664;23.368;2022-12-07T14:34:16;94651.44;;;13.86;49.71
61292;BME280;47165;42.664;23.368;2022-12-07T14:36:41;94651.38;;;13.75;49.87
61292;BME280;47165;42.664;23.368;2022-12-07T14:39:07;94641.59;;;13.66;50.13
61292;BME280;47165;42.664;23.368;2022-12-07T14:41:32;94641.66;;;13.53;50.56
61292;BME280;47165;42.664;23.368;2022-12-07T14:44:16;94655.34;;;13.45;50.79
61292;BME280;47165;42.664;23.368;2022-12-07T14:46:42;94643.88;;;13.35;51.01
61292;BME280;47165;42.664;23.368;2022-12-07T14:52:29;94645.34;;;13.02;52.13
61292;BME280;47165;42.664;23.368;2022-12-07T14:54:55;94652.84;;;12.83;52.60
61292;BME280;47165;42.664;23.368;2022-12-07T14:57:21;94660.53;;;12.73;53.12
61292;BME280;47165;42.664;23.368;2022-12-07T14:59:46;94645.97;;;12.69;53.32
61292;BME280;47165;42.664;23.368;2022-12-07T15:02:13;94653.09;;;12.67;53.67
61292;BME280;47165;42.664;23.368;2022-12-07T15:04:39;94659.63;;;12.61;53.81
61292;BME280;47165;42.664;23.368;2022-12-07T15:07:09;94663.41;;;12.57;53.80
61292;BME280;47165;42.664;23.368;2022-12-07T15:09:35;94663.22;;;12.47;54.00
61292;BME280;47165;42.664;23.368;2022-12-07T15:12:00;94664.38;;;12.43;54.12
61292;BME280;47165;42.664;23.368;2022-12-07T15:14:26;94665.13;;;12.33;54.55
61292;BME280;47165;42.664;23.368;2022-12-07T15:16:51;94665.75;;;12.23;55.65
61292;BME280;47165;42.664;23.368;2022-12-07T15:19:22;94670.47;;;12.18;55.35
61292;BME280;47165;42.664;23.368;2022-12-07T15:21:49;94671.41;;;12.04;55.28
61292;BME280;47165;42.664;23.368;2022-12-07T15:24:15;94677.66;;;11.89;55.93
61292;BME280;47165;42.664;23.368;2022-12-07T15:26:41;94669.88;;;11.75;56.42
61292;BME280;47165;42.664;23.368;2022-12-07T15:29:07;94671.31;;;11.66;56.68
61292;BME280;47165;42.664;23.368;2022-12-07T15:31:33;94676.13;;;11.59;56.98
61292;BME280;47165;42.664;23.368;2022-12-07T15:34:00;94674.03;;;11.52;57.13
61292;BME280;47165;42.664;23.368;2022-12-07T15:36:27;94668.69;;;11.40;57.35
61292;BME280;47165;42.664;23.368;2022-12-07T15:38:54;94666.13;;;11.26;57.91
61292;BME280;47165;42.664;23.368;2022-12-07T15:41:19;94678.19;;;11.14;58.54
61292;BME280;47165;42.664;23.368;2022-12-07T15:43:45;94686.81;;;11.02;59.64